sensor_id;sensor_type;location;lat;lon;timestamp;temperature;humidity
76789;DHT22;65740;52.464;13.446;2023-05-18T00:01:05;20.40;36.10
76789;DHT22;65740;52.464;13.446;2023-05-18T00:03:32;20.40;36.20
76789;DHT22;65740;52.464;13.446;2023-05-18T00:05:58;20.40;36.10
76789;DHT22;65740;52.464;13.446;2023-05-18T00:08:33;20.40;36.30
76789;DHT22;65740;52.464;13.446;2023-05-18T00:11:00;20.40;36.20
76789;DHT22;65740;52.464;13.446;2023-05-18T00:13:25;20.40;36.20
76789;DHT22;65740;52.464;13.446;2023-05-18T00:15:51;20.30;36.20
76789;DHT22;65740;52.464;13.446;2023-05-18T00:18:16;20.30;36.20
76789;DHT22;65740;52.464;13.446;2023-05-18T00:20:42;20.30;36.30
76789;DHT22;65740;52.464;13.446;2023-05-18T00:23:08;20.30;36.20
76789;DHT22;65740;52.464;13.446;2023-05-18T00:25:40;20.30;36.30
76789;DHT22;65740;52.464;13.446;2023-05-18T00:28:06;20.30;36.30
76789;DHT22;65740;52.464;13.446;2023-05-18T00:30:31;20.30;36.30
76789;DHT22;65740;52.464;13.446;2023-05-18T00:32:57;20.20;36.30
76789;DHT22;65740;52.464;13.446;2023-05-18T00:35:23;20.20;36.30
76789;DHT22;65740;52.464;13.446;2023-05-18T00:37:48;20.20;36.30
76789;DHT22;65740;52.464;13.446;2023-05-18T00:40:14;20.20;36.30
76789;DHT22;65740;52.464;13.446;2023-05-18T00:42:40;20.20;36.30
76789;DHT22;65740;52.464;13.446;2023-05-18T00:45:06;20.20;36.30
76789;DHT22;65740;52.464;13.446;2023-05-18T00:47:31;20.10;36.20
76789;DHT22;65740;52.464;13.446;2023-05-18T00:49:57;20.10;36.20
76789;DHT22;65740;52.464;13.446;2023-05-18T00:52:23;20.10;36.30
76789;DHT22;65740;52.464;13.446;2023-05-18T00:54:49;20.10;36.30
76789;DHT22;65740;52.464;13.446;2023-05-18T00:57:15;20.10;36.20
76789;DHT22;65740;52.464;13.446;2023-05-18T00:59:43;20.10;36.20
76789;DHT22;65740;52.464;13.446;2023-05-18T01:02:10;20.10;36.20
76789;DHT22;65740;52.464;13.446;2023-05-18T01:04:36;20.10;36.20
76789;DHT22;65740;52.464;13.446;2023-05-18T01:07:02;20.10;36.20
76789;DHT22;65740;52.464;13.446;2023-05-18T01:09:30;20.10;36.20
76789;DHT22;65740;52.464;13.446;2023-05-18T01:12:06;20.10;36.20
76789;DHT22;65740;52.464;13.446;2023-05-18T01:17:15;20.00;36.10
76789;DHT22;65740;52.464;13.446;2023-05-18T01:20:13;20.00;36.10
76789;DHT22;65740;52.464;13.446;2023-05-18T01:25:25;20.00;36.00
76789;DHT22;65740;52.464;13.446;2023-05-18T01:27:54;20.00;36.10
76789;DHT22;65740;52.464;13.446;2023-05-18T01:30:20;20.00;36.10
76789;DHT22;65740;52.464;13.446;2023-05-18T01:32:46;20.00;36.00
76789;DHT22;65740;52.464;13.446;2023-05-18T01:35:12;20.00;36.10
76789;DHT22;65740;52.464;13.446;2023-05-18T01:37:38;19.90;36.00
76789;DHT22;65740;52.464;13.446;2023-05-18T01:40:05;19.90;36.00
76789;DHT22;65740;52.464;13.446;2023-05-18T01:42:35;19.90;36.00
76789;DHT22;65740;52.464;13.446;2023-05-18T01:45:08;19.90;36.00
76789;DHT22;65740;52.464;13.446;2023-05-18T01:47:41;19.90;36.00
76789;DHT22;65740;52.464;13.446;2023-05-18T01:50:13;19.90;36.00
76789;DHT22;65740;52.464;13.446;2023-05-18T01:52:56;19.90;35.90
76789;DHT22;65740;52.464;13.446;2023-05-18T01:55:28;19.90;36.00
76789;DHT22;65740;52.464;13.446;2023-05-18T01:57:56;19.90;36.00
76789;DHT22;65740;52.464;13.446;2023-05-18T02:00:22;19.80;35.90
76789;DHT22;65740;52.464;13.446;2023-05-18T02:02:48;19.80;35.90
76789;DHT22;65740;52.464;13.446;2023-05-18T02:05:14;19.80;35.80
76789;DHT22;65740;52.464;13.446;2023-05-18T02:07:40;19.80;35.80
76789;DHT22;65740;52.464;13.446;2023-05-18T02:10:08;19.80;35.90
76789;DHT22;65740;52.464;13.446;2023-05-18T02:12:34;19.80;35.80
76789;DHT22;65740;52.464;13.446;2023-05-18T02:15:00;19.80;35.90
76789;DHT22;65740;52.464;13.446;2023-05-18T02:17:33;19.80;35.90
76789;DHT22;65740;52.464;13.446;2023-05-18T02:20:04;19.80;35.80
76789;DHT22;65740;52.464;13.446;2023-05-18T02:22:31;19.70;35.90
76789;DHT22;65740;52.464;13.446;2023-05-18T02:24:57;19.70;35.80
76789;DHT22;65740;52.464;13.446;2023-05-18T02:27:23;19.70;35.80
76789;DHT22;65740;52.464;13.446;2023-05-18T02:29:48;19.70;35.90
76789;DHT22;65740;52.464;13.446;2023-05-18T02:32:14;19.70;35.90
76789;DHT22;65740;52.464;13.446;2023-05-18T02:34:40;19.70;35.90
76789;DHT22;65740;52.464;13.446;2023-05-18T02:37:06;19.70;35.90
76789;DHT22;65740;52.464;13.446;2023-05-18T02:39:32;19.70;35.90
76789;DHT22;65740;52.464;13.446;2023-05-18T02:41:58;19.70;35.80
76789;DHT22;65740;52.464;13.446;2023-05-18T02:44:24;19.60;35.70
76789;DHT22;65740;52.464;13.446;2023-05-18T02:46:50;19.60;35.80
76789;DHT22;65740;52.464;13.446;2023-05-18T02:49:15;19.60;35.70
76789;DHT22;65740;52.464;13.446;2023-05-18T02:51:41;19.60;35.70
76789;DHT22;65740;52.464;13.446;2023-05-18T02:54:06;19.60;35.80
76789;DHT22;65740;52.464;13.446;2023-05-18T02:56:32;19.60;35.70
76789;DHT22;65740;52.464;13.446;2023-05-18T02:58:58;19.60;35.70
76789;DHT22;65740;52.464;13.446;2023-05-18T03:01:25;19.60;35.70
76789;DHT22;65740;52.464;13.446;2023-05-18T03:03:54;19.60;35.70
76789;DHT22;65740;52.464;13.446;2023-05-18T03:06:22;19.60;35.70
76789;DHT22;65740;52.464;13.446;2023-05-18T03:08:49;19.60;35.70
76789;DHT22;65740;52.464;13.446;2023-05-18T03:11:15;19.60;35.70
76789;DHT22;65740;52.464;13.446;2023-05-18T03:13:41;19.60;35.70
76789;DHT22;65740;52.464;13.446;2023-05-18T03:16:08;19.50;35.60
76789;DHT22;65740;52.464;13.446;2023-05-18T03:18:33;19.60;35.70
76789;DHT22;65740;52.464;13.446;2023-05-18T03:20:59;19.50;35.70
76789;DHT22;65740;52.464;13.446;2023-05-18T03:23:26;19.50;35.60
76789;DHT22;65740;52.464;13.446;2023-05-18T03:25:52;19.50;36.40
76789;DHT22;65740;52.464;13.446;2023-05-18T03:28:19;19.50;35.70
76789;DHT22;65740;52.464;13.446;2023-05-18T03:30:45;19.50;35.70
76789;DHT22;65740;52.464;13.446;2023-05-18T03:33:10;19.50;35.70
76789;DHT22;65740;52.464;13.446;2023-05-18T03:35:36;19.50;35.70
76789;DHT22;65740;52.464;13.446;2023-05-18T03:38:04;19.50;35.70
76789;DHT22;65740;52.464;13.446;2023-05-18T03:40:32;19.40;35.60
76789;DHT22;65740;52.464;13.446;2023-05-18T03:42:57;19.40;35.60
76789;DHT22;65740;52.464;13.446;2023-05-18T03:45:23;19.40;35.60
76789;DHT22;65740;52.464;13.446;2023-05-18T03:47:49;19.40;36.30
76789;DHT22;65740;52.464;13.446;2023-05-18T03:50:15;19.40;35.70
76789;DHT22;65740;52.464;13.446;2023-05-18T03:52:42;19.40;35.70
76789;DHT22;65740;52.464;13.446;2023-05-18T03:55:09;19.40;35.50
76789;DHT22;65740;52.464;13.446;2023-05-18T03:57:34;19.40;35.60
76789;DHT22;65740;52.464;13.446;2023-05-18T04:00:01;19.40;35.60
76789;DHT22;65740;52.464;13.446;2023-05-18T04:02:38;19.40;35.50
76789;DHT22;65740;52.464;13.446;2023-05-18T04:05:04;19.40;35.50
76789;DHT22;65740;52.464;13.446;2023-05-18T04:07:30;19.40;35.20
76789;DHT22;65740;52.464;13.446;2023-05-18T04:09:56;19.40;35.60
76789;DHT22;65740;52.464;13.446;2023-05-18T04:12:22;19.40;35.50
76789;DHT22;65740;52.464;13.446;2023-05-18T04:14:47;19.40;35.50
76789;DHT22;65740;52.464;13.446;2023-05-18T04:17:19;19.40;35.50
76789;DHT22;65740;52.464;13.446;2023-05-18T04:19:48;19.40;35.50
76789;DHT22;65740;52.464;13.446;2023-05-18T04:22:15;19.30;35.40
76789;DHT22;65740;52.464;13.446;2023-05-18T04:24:41;19.40;35.50
76789;DHT22;65740;52.464;13.446;2023-05-18T04:27:07;19.40;35.50
76789;DHT22;65740;52.464;13.446;2023-05-18T04:29:33;19.40;35.40
76789;DHT22;65740;52.464;13.446;2023-05-18T04:32:06;19.40;35.40
76789;DHT22;65740;52.464;13.446;2023-05-18T04:34:33;19.40;35.40
76789;DHT22;65740;52.464;13.446;2023-05-18T04:37:03;19.40;35.50
76789;DHT22;65740;52.464;13.446;2023-05-18T04:39:32;19.30;35.40
76789;DHT22;65740;52.464;13.446;2023-05-18T04:41:59;19.30;35.30
76789;DHT22;65740;52.464;13.446;2023-05-18T04:44:26;19.30;36.30
76789;DHT22;65740;52.464;13.446;2023-05-18T04:46:52;19.30;35.50
76789;DHT22;65740;52.464;13.446;2023-05-18T04:49:18;19.30;35.60
76789;DHT22;65740;52.464;13.446;2023-05-18T04:51:53;19.30;35.60
76789;DHT22;65740;52.464;13.446;2023-05-18T04:54:27;19.30;35.60
76789;DHT22;65740;52.464;13.446;2023-05-18T04:56:57;19.20;35.40
76789;DHT22;65740;52.464;13.446;2023-05-18T04:59:23;19.20;35.40
76789;DHT22;65740;52.464;13.446;2023-05-18T05:01:51;19.20;35.40
76789;DHT22;65740;52.464;13.446;2023-05-18T05:04:18;19.20;35.50
76789;DHT22;65740;52.464;13.446;2023-05-18T05:06:44;19.20;35.40
76789;DHT22;65740;52.464;13.446;2023-05-18T05:09:09;19.20;35.50
76789;DHT22;65740;52.464;13.446;2023-05-18T05:11:38;19.20;35.50
76789;DHT22;65740;52.464;13.446;2023-05-18T05:14:03;19.20;35.70
76789;DHT22;65740;52.464;13.446;2023-05-18T05:16:29;19.20;35.50
76789;DHT22;65740;52.464;13.446;2023-05-18T05:18:55;19.20;35.40
76789;DHT22;65740;52.464;13.446;2023-05-18T05:21:21;19.20;35.50
76789;DHT22;65740;52.464;13.446;2023-05-18T05:23:47;19.20;35.50
76789;DHT22;65740;52.464;13.446;2023-05-18T05:26:12;19.20;35.50
76789;DHT22;65740;52.464;13.446;2023-05-18T05:28:38;19.20;35.50
76789;DHT22;65740;52.464;13.446;2023-05-18T05:31:03;19.20;35.50
76789;DHT22;65740;52.464;13.446;2023-05-18T05:33:29;19.10;35.50
76789;DHT22;65740;52.464;13.446;2023-05-18T05:35:55;19.20;35.70
76789;DHT22;65740;52.464;13.446;2023-05-18T05:38:20;19.20;35.50
76789;DHT22;65740;52.464;13.446;2023-05-18T05:40:46;19.20;35.60
76789;DHT22;65740;52.464;13.446;2023-05-18T05:43:11;19.20;35.50
76789;DHT22;65740;52.464;13.446;2023-05-18T05:45:37;19.20;35.40
76789;DHT22;65740;52.464;13.446;2023-05-18T05:48:03;19.20;35.40
76789;DHT22;65740;52.464;13.446;2023-05-18T05:50:28;19.20;35.50
76789;DHT22;65740;52.464;13.446;2023-05-18T05:52:54;19.20;35.50
76789;DHT22;65740;52.464;13.446;2023-05-18T05:55:20;19.20;35.60
76789;DHT22;65740;52.464;13.446;2023-05-18T05:57:46;19.20;35.50
76789;DHT22;65740;52.464;13.446;2023-05-18T06:00:12;19.20;35.40
76789;DHT22;65740;52.464;13.446;2023-05-18T06:02:38;19.20;35.40
76789;DHT22;65740;52.464;13.446;2023-05-18T06:05:05;19.20;35.40
76789;DHT22;65740;52.464;13.446;2023-05-18T06:07:32;19.30;35.50
76789;DHT22;65740;52.464;13.446;2023-05-18T06:09:57;19.30;35.50
76789;DHT22;65740;52.464;13.446;2023-05-18T06:12:23;19.30;35.40
76789;DHT22;65740;52.464;13.446;2023-05-18T06:14:48;19.30;35.50
76789;DHT22;65740;52.464;13.446;2023-05-18T06:17:17;19.30;35.50
76789;DHT22;65740;52.464;13.446;2023-05-18T06:19:42;19.30;35.50
76789;DHT22;65740;52.464;13.446;2023-05-18T06:22:08;19.30;35.50
76789;DHT22;65740;52.464;13.446;2023-05-18T06:24:33;19.30;35.60
76789;DHT22;65740;52.464;13.446;2023-05-18T06:26:59;19.30;35.70
76789;DHT22;65740;52.464;13.446;2023-05-18T06:29:25;19.30;35.70
76789;DHT22;65740;52.464;13.446;2023-05-18T06:31:50;19.30;35.80
76789;DHT22;65740;52.464;13.446;2023-05-18T06:34:16;19.20;35.70
76789;DHT22;65740;52.464;13.446;2023-05-18T06:36:41;19.30;35.80
76789;DHT22;65740;52.464;13.446;2023-05-18T06:39:07;19.20;35.80
76789;DHT22;65740;52.464;13.446;2023-05-18T06:41:33;19.20;35.70
76789;DHT22;65740;52.464;13.446;2023-05-18T06:43:59;19.20;35.90
76789;DHT22;65740;52.464;13.446;2023-05-18T06:46:26;19.20;35.80
76789;DHT22;65740;52.464;13.446;2023-05-18T06:48:52;19.20;36.00
76789;DHT22;65740;52.464;13.446;2023-05-18T06:51:17;19.20;36.00
76789;DHT22;65740;52.464;13.446;2023-05-18T06:53:43;19.20;36.20
76789;DHT22;65740;52.464;13.446;2023-05-18T06:56:09;19.20;36.10
76789;DHT22;65740;52.464;13.446;2023-05-18T06:58:41;19.20;36.10
76789;DHT22;65740;52.464;13.446;2023-05-18T07:01:07;19.20;36.20
76789;DHT22;65740;52.464;13.446;2023-05-18T07:03:33;19.20;36.90
76789;DHT22;65740;52.464;13.446;2023-05-18T07:05:59;19.20;36.20
76789;DHT22;65740;52.464;13.446;2023-05-18T07:08:24;19.20;36.20
76789;DHT22;65740;52.464;13.446;2023-05-18T07:10:50;19.20;36.20
76789;DHT22;65740;52.464;13.446;2023-05-18T07:13:17;19.30;36.30
76789;DHT22;65740;52.464;13.446;2023-05-18T07:15:43;19.30;36.50
76789;DHT22;65740;52.464;13.446;2023-05-18T07:18:08;19.30;36.70
76789;DHT22;65740;52.464;13.446;2023-05-18T07:20:34;19.30;36.70
76789;DHT22;65740;52.464;13.446;2023-05-18T07:22:59;19.30;36.50
76789;DHT22;65740;52.464;13.446;2023-05-18T07:25:26;19.30;36.60
76789;DHT22;65740;52.464;13.446;2023-05-18T07:27:53;19.30;36.60
76789;DHT22;65740;52.464;13.446;2023-05-18T07:30:20;19.30;36.60
76789;DHT22;65740;52.464;13.446;2023-05-18T07:32:45;19.40;36.70
76789;DHT22;65740;52.464;13.446;2023-05-18T07:35:11;19.40;37.00
76789;DHT22;65740;52.464;13.446;2023-05-18T07:37:37;19.30;36.70
76789;DHT22;65740;52.464;13.446;2023-05-18T07:40:03;19.40;36.80
76789;DHT22;65740;52.464;13.446;2023-05-18T07:42:29;19.40;36.90
76789;DHT22;65740;52.464;13.446;2023-05-18T07:44:55;19.40;36.70
76789;DHT22;65740;52.464;13.446;2023-05-18T07:47:21;19.40;36.80
76789;DHT22;65740;52.464;13.446;2023-05-18T07:49:47;19.40;37.00
76789;DHT22;65740;52.464;13.446;2023-05-18T07:52:13;19.40;37.10
76789;DHT22;65740;52.464;13.446;2023-05-18T07:54:39;19.40;37.10
76789;DHT22;65740;52.464;13.446;2023-05-18T07:57:05;19.40;37.10
76789;DHT22;65740;52.464;13.446;2023-05-18T07:59:31;19.40;36.80
76789;DHT22;65740;52.464;13.446;2023-05-18T08:01:56;19.40;37.50
76789;DHT22;65740;52.464;13.446;2023-05-18T08:04:23;19.40;36.40
76789;DHT22;65740;52.464;13.446;2023-05-18T08:06:49;19.40;36.30
76789;DHT22;65740;52.464;13.446;2023-05-18T08:09:14;19.40;36.20
76789;DHT22;65740;52.464;13.446;2023-05-18T08:11:41;19.40;36.00
76789;DHT22;65740;52.464;13.446;2023-05-18T08:14:07;19.40;35.90
76789;DHT22;65740;52.464;13.446;2023-05-18T08:16:32;19.40;35.80
76789;DHT22;65740;52.464;13.446;2023-05-18T08:19:02;19.40;35.80
76789;DHT22;65740;52.464;13.446;2023-05-18T08:21:27;19.40;35.50
76789;DHT22;65740;52.464;13.446;2023-05-18T08:23:54;19.40;35.50
76789;DHT22;65740;52.464;13.446;2023-05-18T08:26:20;19.40;35.50
76789;DHT22;65740;52.464;13.446;2023-05-18T08:28:46;19.40;35.50
76789;DHT22;65740;52.464;13.446;2023-05-18T08:31:13;19.40;35.40
76789;DHT22;65740;52.464;13.446;2023-05-18T08:33:39;19.40;35.30
76789;DHT22;65740;52.464;13.446;2023-05-18T08:36:05;19.50;35.30
76789;DHT22;65740;52.464;13.446;2023-05-18T08:38:30;19.50;35.20
76789;DHT22;65740;52.464;13.446;2023-05-18T08:41:19;19.50;35.20
76789;DHT22;65740;52.464;13.446;2023-05-18T08:43:52;19.50;35.60
76789;DHT22;65740;52.464;13.446;2023-05-18T08:46:27;19.50;35.20
76789;DHT22;65740;52.464;13.446;2023-05-18T08:48:54;19.60;35.00
76789;DHT22;65740;52.464;13.446;2023-05-18T08:51:20;19.50;35.00
76789;DHT22;65740;52.464;13.446;2023-05-18T08:53:53;19.60;35.30
76789;DHT22;65740;52.464;13.446;2023-05-18T08:56:22;19.60;35.80
76789;DHT22;65740;52.464;13.446;2023-05-18T08:58:50;19.60;36.20
76789;DHT22;65740;52.464;13.446;2023-05-18T09:01:16;19.70;35.70
76789;DHT22;65740;52.464;13.446;2023-05-18T09:03:44;19.70;36.20
76789;DHT22;65740;52.464;13.446;2023-05-18T09:06:11;19.70;35.40
76789;DHT22;65740;52.464;13.446;2023-05-18T09:08:37;19.70;36.20
76789;DHT22;65740;52.464;13.446;2023-05-18T09:11:04;19.70;36.00
76789;DHT22;65740;52.464;13.446;2023-05-18T09:13:30;19.70;36.10
76789;DHT22;65740;52.464;13.446;2023-05-18T09:15:56;19.70;35.70
76789;DHT22;65740;52.464;13.446;2023-05-18T09:18:21;19.70;35.50
76789;DHT22;65740;52.464;13.446;2023-05-18T09:20:47;19.70;35.40
76789;DHT22;65740;52.464;13.446;2023-05-18T09:23:14;19.70;35.60
76789;DHT22;65740;52.464;13.446;2023-05-18T09:25:44;19.80;35.50
76789;DHT22;65740;52.464;13.446;2023-05-18T09:28:12;19.80;35.40
76789;DHT22;65740;52.464;13.446;2023-05-18T09:30:42;19.80;36.20
76789;DHT22;65740;52.464;13.446;2023-05-18T09:33:18;19.80;35.30
76789;DHT22;65740;52.464;13.446;2023-05-18T09:35:46;19.80;35.40
76789;DHT22;65740;52.464;13.446;2023-05-18T09:38:15;19.80;35.30
76789;DHT22;65740;52.464;13.446;2023-05-18T09:40:45;19.90;35.30
76789;DHT22;65740;52.464;13.446;2023-05-18T09:43:11;19.90;35.50
76789;DHT22;65740;52.464;13.446;2023-05-18T09:45:41;19.90;35.30
76789;DHT22;65740;52.464;13.446;2023-05-18T09:48:08;19.90;36.20
76789;DHT22;65740;52.464;13.446;2023-05-18T09:50:34;19.90;37.50
76789;DHT22;65740;52.464;13.446;2023-05-18T09:53:05;19.90;37.70
76789;DHT22;65740;52.464;13.446;2023-05-18T09:55:30;20.00;36.30
76789;DHT22;65740;52.464;13.446;2023-05-18T09:57:56;20.10;36.50
76789;DHT22;65740;52.464;13.446;2023-05-18T10:00:22;20.10;36.70
76789;DHT22;65740;52.464;13.446;2023-05-18T10:02:50;20.10;36.50
76789;DHT22;65740;52.464;13.446;2023-05-18T10:05:25;20.20;35.90
76789;DHT22;65740;52.464;13.446;2023-05-18T10:07:59;20.20;35.40
76789;DHT22;65740;52.464;13.446;2023-05-18T10:10:27;20.20;34.60
76789;DHT22;65740;52.464;13.446;2023-05-18T10:12:56;20.30;34.40
76789;DHT22;65740;52.464;13.446;2023-05-18T10:15:23;20.20;34.70
76789;DHT22;65740;52.464;13.446;2023-05-18T10:17:50;20.30;34.80
76789;DHT22;65740;52.464;13.446;2023-05-18T10:20:21;20.30;34.80
76789;DHT22;65740;52.464;13.446;2023-05-18T10:22:54;20.30;35.20
76789;DHT22;65740;52.464;13.446;2023-05-18T10:25:22;20.30;35.10
76789;DHT22;65740;52.464;13.446;2023-05-18T10:27:49;20.30;35.30
76789;DHT22;65740;52.464;13.446;2023-05-18T10:30:15;20.30;34.40
76789;DHT22;65740;52.464;13.446;2023-05-18T10:32:44;20.40;34.40
76789;DHT22;65740;52.464;13.446;2023-05-18T10:35:10;20.50;34.30
76789;DHT22;65740;52.464;13.446;2023-05-18T10:37:39;20.50;34.30
76789;DHT22;65740;52.464;13.446;2023-05-18T10:42:33;20.50;33.90
76789;DHT22;65740;52.464;13.446;2023-05-18T10:44:59;20.50;34.50
76789;DHT22;65740;52.464;13.446;2023-05-18T10:47:29;20.60;35.00
76789;DHT22;65740;52.464;13.446;2023-05-18T10:49:57;20.60;34.80
76789;DHT22;65740;52.464;13.446;2023-05-18T10:52:24;20.70;34.10
76789;DHT22;65740;52.464;13.446;2023-05-18T10:54:59;20.60;33.90
76789;DHT22;65740;52.464;13.446;2023-05-18T10:57:29;20.70;34.40
76789;DHT22;65740;52.464;13.446;2023-05-18T10:59:59;20.70;34.40
76789;DHT22;65740;52.464;13.446;2023-05-18T11:02:25;20.70;33.80
76789;DHT22;65740;52.464;13.446;2023-05-18T11:04:52;20.70;34.10
76789;DHT22;65740;52.464;13.446;2023-05-18T11:07:19;20.70;34.00
76789;DHT22;65740;52.464;13.446;2023-05-18T11:09:47;20.80;34.90
76789;DHT22;65740;52.464;13.446;2023-05-18T11:12:15;20.80;34.30
76789;DHT22;65740;52.464;13.446;2023-05-18T11:14:53;20.80;34.40
76789;DHT22;65740;52.464;13.446;2023-05-18T11:17:23;20.90;34.10
76789;DHT22;65740;52.464;13.446;2023-05-18T11:27:55;21.00;34.30
76789;DHT22;65740;52.464;13.446;2023-05-18T11:33:10;21.00;33.80
76789;DHT22;65740;52.464;13.446;2023-05-18T11:36:02;21.00;34.50
76789;DHT22;65740;52.464;13.446;2023-05-18T11:41:38;21.10;34.70
76789;DHT22;65740;52.464;13.446;2023-05-18T11:44:17;21.20;34.60
76789;DHT22;65740;52.464;13.446;2023-05-18T11:46:52;21.20;34.90
76789;DHT22;65740;52.464;13.446;2023-05-18T11:49:26;21.30;35.50
76789;DHT22;65740;52.464;13.446;2023-05-18T11:52:20;21.20;34.90
76789;DHT22;65740;52.464;13.446;2023-05-18T11:54:51;21.20;34.90
76789;DHT22;65740;52.464;13.446;2023-05-18T11:57:19;21.20;37.40
76789;DHT22;65740;52.464;13.446;2023-05-18T11:59:56;21.30;35.40
76789;DHT22;65740;52.464;13.446;2023-05-18T12:02:30;21.30;35.40
76789;DHT22;65740;52.464;13.446;2023-05-18T12:04:58;21.30;36.90
76789;DHT22;65740;52.464;13.446;2023-05-18T12:07:28;21.30;36.00
76789;DHT22;65740;52.464;13.446;2023-05-18T12:10:07;21.30;36.10
76789;DHT22;65740;52.464;13.446;2023-05-18T12:12:34;21.40;36.50
76789;DHT22;65740;52.464;13.446;2023-05-18T12:15:01;21.40;37.30
76789;DHT22;65740;52.464;13.446;2023-05-18T12:17:48;21.50;38.70
76789;DHT22;65740;52.464;13.446;2023-05-18T12:20:18;21.50;36.30
76789;DHT22;65740;52.464;13.446;2023-05-18T12:22:45;21.50;35.60
76789;DHT22;65740;52.464;13.446;2023-05-18T12:25:11;21.60;35.80
76789;DHT22;65740;52.464;13.446;2023-05-18T12:27:38;21.60;36.80
76789;DHT22;65740;52.464;13.446;2023-05-18T12:30:08;21.60;36.00
76789;DHT22;65740;52.464;13.446;2023-05-18T12:32:34;21.70;37.80
76789;DHT22;65740;52.464;13.446;2023-05-18T12:34:59;21.70;38.10
76789;DHT22;65740;52.464;13.446;2023-05-18T12:37:25;21.70;38.10
76789;DHT22;65740;52.464;13.446;2023-05-18T12:39:51;21.80;36.90
76789;DHT22;65740;52.464;13.446;2023-05-18T12:42:18;21.70;39.10
76789;DHT22;65740;52.464;13.446;2023-05-18T12:44:44;21.70;37.30
76789;DHT22;65740;52.464;13.446;2023-05-18T12:47:13;21.70;36.90
76789;DHT22;65740;52.464;13.446;2023-05-18T12:49:42;21.70;37.60
76789;DHT22;65740;52.464;13.446;2023-05-18T12:54:34;21.80;36.50
76789;DHT22;65740;52.464;13.446;2023-05-18T12:57:04;21.80;37.60
76789;DHT22;65740;52.464;13.446;2023-05-18T12:59:31;21.80;38.10
76789;DHT22;65740;52.464;13.446;2023-05-18T13:01:57;21.80;37.00
76789;DHT22;65740;52.464;13.446;2023-05-18T13:04:32;21.90;38.20
76789;DHT22;65740;52.464;13.446;2023-05-18T13:06:58;21.90;39.20
76789;DHT22;65740;52.464;13.446;2023-05-18T13:09:24;22.00;37.40
76789;DHT22;65740;52.464;13.446;2023-05-18T13:11:50;22.00;38.90
76789;DHT22;65740;52.464;13.446;2023-05-18T13:14:19;22.00;39.30
76789;DHT22;65740;52.464;13.446;2023-05-18T13:16:49;22.00;37.20
76789;DHT22;65740;52.464;13.446;2023-05-18T13:19:16;22.10;38.40
76789;DHT22;65740;52.464;13.446;2023-05-18T13:21:53;22.10;37.90
76789;DHT22;65740;52.464;13.446;2023-05-18T13:24:19;22.10;36.70
76789;DHT22;65740;52.464;13.446;2023-05-18T13:26:45;22.10;37.20
76789;DHT22;65740;52.464;13.446;2023-05-18T13:29:11;22.20;38.70
76789;DHT22;65740;52.464;13.446;2023-05-18T13:31:38;22.20;36.80
76789;DHT22;65740;52.464;13.446;2023-05-18T13:34:04;22.20;35.90
76789;DHT22;65740;52.464;13.446;2023-05-18T13:36:29;22.20;36.10
76789;DHT22;65740;52.464;13.446;2023-05-18T13:38:55;22.30;35.50
76789;DHT22;65740;52.464;13.446;2023-05-18T13:41:21;22.20;36.20
76789;DHT22;65740;52.464;13.446;2023-05-18T13:43:47;22.30;36.20
76789;DHT22;65740;52.464;13.446;2023-05-18T13:46:12;22.20;37.70
76789;DHT22;65740;52.464;13.446;2023-05-18T13:48:38;22.20;36.70
76789;DHT22;65740;52.464;13.446;2023-05-18T13:51:04;22.30;36.50
76789;DHT22;65740;52.464;13.446;2023-05-18T13:53:30;22.30;37.20
76789;DHT22;65740;52.464;13.446;2023-05-18T13:55:56;22.30;36.60
76789;DHT22;65740;52.464;13.446;2023-05-18T13:58:21;22.30;37.30
76789;DHT22;65740;52.464;13.446;2023-05-18T14:00:48;22.30;37.60
76789;DHT22;65740;52.464;13.446;2023-05-18T14:03:13;22.30;36.20
76789;DHT22;65740;52.464;13.446;2023-05-18T14:05:39;22.30;35.30
76789;DHT22;65740;52.464;13.446;2023-05-18T14:08:05;22.40;38.70
76789;DHT22;65740;52.464;13.446;2023-05-18T14:10:31;22.40;36.10
76789;DHT22;65740;52.464;13.446;2023-05-18T14:12:56;22.40;38.20
76789;DHT22;65740;52.464;13.446;2023-05-18T14:15:22;22.40;34.50
76789;DHT22;65740;52.464;13.446;2023-05-18T14:17:47;22.40;36.60
76789;DHT22;65740;52.464;13.446;2023-05-18T14:20:13;22.40;36.50
76789;DHT22;65740;52.464;13.446;2023-05-18T14:22:39;22.40;34.00
76789;DHT22;65740;52.464;13.446;2023-05-18T14:25:05;22.40;35.00
76789;DHT22;65740;52.464;13.446;2023-05-18T14:27:31;22.40;35.90
76789;DHT22;65740;52.464;13.446;2023-05-18T14:29:57;22.40;35.00
76789;DHT22;65740;52.464;13.446;2023-05-18T14:32:23;22.40;34.60
76789;DHT22;65740;52.464;13.446;2023-05-18T14:34:49;22.40;34.10
76789;DHT22;65740;52.464;13.446;2023-05-18T14:37:19;22.50;35.10
76789;DHT22;65740;52.464;13.446;2023-05-18T14:39:44;22.40;35.10
76789;DHT22;65740;52.464;13.446;2023-05-18T14:42:10;22.50;34.90
76789;DHT22;65740;52.464;13.446;2023-05-18T14:44:36;22.50;35.00
76789;DHT22;65740;52.464;13.446;2023-05-18T14:47:02;22.50;35.10
76789;DHT22;65740;52.464;13.446;2023-05-18T14:49:27;22.50;35.10
76789;DHT22;65740;52.464;13.446;2023-05-18T14:51:53;22.50;34.80
76789;DHT22;65740;52.464;13.446;2023-05-18T14:54:19;22.50;35.40
76789;DHT22;65740;52.464;13.446;2023-05-18T14:56:44;22.60;34.00
76789;DHT22;65740;52.464;13.446;2023-05-18T14:59:10;22.60;35.40
76789;DHT22;65740;52.464;13.446;2023-05-18T15:01:36;22.60;36.40
76789;DHT22;65740;52.464;13.446;2023-05-18T15:04:02;22.60;36.10
76789;DHT22;65740;52.464;13.446;2023-05-18T15:06:27;22.70;36.80
76789;DHT22;65740;52.464;13.446;2023-05-18T15:08:53;22.70;35.40
76789;DHT22;65740;52.464;13.446;2023-05-18T15:11:19;22.70;35.40
76789;DHT22;65740;52.464;13.446;2023-05-18T15:13:47;22.70;35.60
76789;DHT22;65740;52.464;13.446;2023-05-18T15:16:13;22.70;37.10
76789;DHT22;65740;52.464;13.446;2023-05-18T15:18:40;22.70;37.00
76789;DHT22;65740;52.464;13.446;2023-05-18T15:21:06;22.80;38.10
76789;DHT22;65740;52.464;13.446;2023-05-18T15:23:32;22.70;37.60
76789;DHT22;65740;52.464;13.446;2023-05-18T15:25:58;22.70;36.60
76789;DHT22;65740;52.464;13.446;2023-05-18T15:28:23;22.80;37.50
76789;DHT22;65740;52.464;13.446;2023-05-18T15:30:49;22.80;36.20
76789;DHT22;65740;52.464;13.446;2023-05-18T15:33:15;22.80;38.10
76789;DHT22;65740;52.464;13.446;2023-05-18T15:35:40;22.80;35.80
76789;DHT22;65740;52.464;13.446;2023-05-18T15:38:06;22.90;39.90
76789;DHT22;65740;52.464;13.446;2023-05-18T15:40:32;22.90;39.10